createdAt,value
2019-06-26T00:01:26.417Z,92.90
2019-06-26T00:03:54.957Z,93.60
2019-06-26T00:06:23.544Z,94.90
2019-06-26T00:08:52.228Z,94.60
2019-06-26T00:11:20.852Z,95.00
2019-06-26T00:13:49.331Z,95.10
2019-06-26T00:16:18.022Z,95.70
2019-06-26T00:18:46.933Z,95.60
2019-06-26T00:21:15.467Z,95.50
2019-06-26T00:23:44.022Z,96.30
2019-06-26T00:26:12.560Z,96.90
2019-06-26T00:28:41.072Z,97.10
2019-06-26T00:31:09.746Z,98.00
2019-06-26T00:33:38.300Z,98.00
2019-06-26T00:36:06.890Z,98.00
2019-06-26T00:38:35.469Z,97.00
2019-06-26T00:41:04.150Z,97.50
2019-06-26T00:43:42.003Z,97.80
2019-06-26T00:46:03.089Z,97.80
2019-06-26T00:48:31.729Z,97.90
2019-06-26T00:51:00.434Z,98.30
2019-06-26T00:53:29.026Z,97.70
2019-06-26T00:55:57.699Z,97.00
2019-06-26T00:58:26.628Z,98.10
2019-06-26T01:00:55.381Z,97.70
2019-06-26T01:03:23.881Z,97.10
2019-06-26T01:05:52.451Z,97.70
2019-06-26T01:08:21.269Z,97.80
2019-06-26T01:10:49.887Z,97.70
2019-06-26T01:13:18.431Z,98.30
2019-06-26T01:15:46.963Z,97.90
2019-06-26T01:18:15.551Z,97.70
2019-06-26T01:20:44.106Z,97.80
2019-06-26T01:23:12.716Z,97.80
2019-06-26T01:25:41.439Z,97.90
2019-06-26T01:28:09.911Z,98.30
2019-06-26T01:30:38.512Z,97.30
2019-06-26T01:33:06.975Z,97.50
2019-06-26T01:35:35.576Z,98.20
2019-06-26T01:38:04.240Z,97.70
2019-06-26T01:40:32.913Z,97.70
2019-06-26T01:43:01.614Z,97.80
2019-06-26T01:45:30.188Z,97.90
2019-06-26T01:47:58.777Z,98.70
2019-06-26T01:50:27.223Z,98.80
2019-06-26T01:52:55.773Z,98.60
2019-06-26T01:55:24.312Z,98.50
2019-06-26T01:57:52.902Z,99.00
2019-06-26T02:00:21.652Z,99.20
2019-06-26T02:02:50.430Z,99.90
2019-06-26T02:05:18.983Z,99.90
2019-06-26T02:07:47.621Z,99.90
2019-06-26T02:10:16.670Z,99.90
2019-06-26T02:12:45.161Z,99.90
2019-06-26T02:15:19.686Z,99.90
2019-06-26T02:17:48.314Z,99.90
2019-06-26T02:20:17.031Z,99.90
2019-06-26T02:22:45.563Z,99.90
2019-06-26T02:25:14.260Z,99.90
2019-06-26T02:27:42.945Z,99.90
2019-06-26T02:30:11.724Z,99.90
2019-06-26T02:32:40.285Z,99.90
2019-06-26T02:35:10.241Z,99.90
2019-06-26T02:37:39.291Z,99.90
2019-06-26T02:40:08.291Z,99.90
2019-06-26T02:42:36.765Z,99.90
2019-06-26T02:45:06.765Z,99.90
2019-06-26T02:47:35.619Z,99.90
2019-06-26T02:50:06.555Z,99.90
2019-06-26T02:52:35.223Z,99.90
2019-06-26T02:55:05.113Z,99.90
2019-06-26T02:57:33.870Z,99.90
2019-06-26T03:00:02.677Z,99.90
2019-06-26T03:02:31.494Z,99.90
2019-06-26T03:05:00.066Z,99.90
2019-06-26T03:07:28.676Z,99.90
2019-06-26T03:09:57.196Z,99.90
2019-06-26T03:12:25.677Z,99.90
2019-06-26T03:15:07.764Z,99.90
2019-06-26T03:17:24.315Z,99.90
2019-06-26T03:19:52.911Z,99.90
2019-06-26T03:22:21.491Z,99.90
2019-06-26T03:24:50.159Z,99.90
2019-06-26T03:27:18.839Z,99.90
2019-06-26T03:29:47.372Z,99.90
2019-06-26T03:32:16.003Z,99.90
2019-06-26T03:34:44.487Z,99.90
2019-06-26T03:37:13.182Z,99.90
2019-06-26T03:39:41.765Z,99.90
2019-06-26T03:42:10.382Z,99.90
2019-06-26T03:44:39.030Z,99.90
2019-06-26T03:47:07.693Z,99.90
2019-06-26T03:49:36.230Z,99.90
2019-06-26T03:54:39.227Z,99.90
2019-06-26T03:57:07.921Z,99.90
2019-06-26T03:59:36.439Z,99.90
2019-06-26T04:02:05.092Z,99.90
2019-06-26T04:04:33.770Z,99.90
2019-06-26T04:07:02.319Z,99.90
2019-06-26T04:09:30.986Z,99.90
2019-06-26T04:11:59.526Z,99.90
2019-06-26T04:14:28.069Z,99.90
2019-06-26T04:16:56.768Z,99.90
2019-06-26T04:19:25.614Z,99.90
2019-06-26T04:21:54.255Z,99.90
2019-06-26T04:24:22.724Z,99.90
2019-06-26T04:26:51.333Z,99.90
2019-06-26T04:29:19.887Z,99.90
2019-06-26T04:31:48.472Z,99.90
2019-06-26T04:34:16.992Z,99.90
2019-06-26T04:36:46.367Z,99.90
2019-06-26T04:39:14.974Z,99.90
2019-06-26T04:41:43.520Z,99.90
2019-06-26T04:44:12.332Z,99.90
2019-06-26T04:46:40.816Z,99.90
2019-06-26T04:49:09.337Z,99.90
2019-06-26T04:51:37.879Z,99.90
2019-06-26T04:54:06.487Z,99.90
2019-06-26T04:56:35.242Z,99.90
2019-06-26T04:59:03.807Z,99.90
2019-06-26T05:01:32.354Z,99.90
2019-06-26T05:04:01.876Z,99.90
2019-06-26T05:06:38.079Z,99.90
2019-06-26T05:09:07.441Z,99.90
2019-06-26T05:11:36.225Z,99.90
2019-06-26T05:14:05.465Z,99.90
2019-06-26T05:16:34.298Z,99.90
2019-06-26T05:19:02.973Z,99.90
2019-06-26T05:21:31.493Z,99.90
2019-06-26T05:24:00.027Z,99.90
2019-06-26T05:26:29.283Z,99.90
2019-06-26T05:28:57.885Z,99.90
2019-06-26T05:31:26.681Z,99.90
2019-06-26T05:33:55.385Z,99.90
2019-06-26T05:36:24.567Z,99.90
2019-06-26T05:38:54.238Z,99.90
2019-06-26T05:41:23.158Z,99.90
2019-06-26T05:43:52.119Z,99.90
2019-06-26T05:46:30.583Z,99.90
2019-06-26T05:48:53.870Z,99.90
2019-06-26T05:51:22.984Z,99.90
2019-06-26T05:53:51.696Z,99.90
2019-06-26T05:56:20.419Z,99.90
2019-06-26T05:58:49.048Z,99.90
2019-06-26T06:01:17.738Z,99.90
2019-06-26T06:03:46.323Z,99.90
2019-06-26T06:06:14.906Z,99.90
2019-06-26T06:08:43.532Z,99.90
2019-06-26T06:11:12.156Z,99.90
2019-06-26T06:13:40.795Z,99.90
2019-06-26T06:16:09.391Z,99.90
2019-06-26T06:18:38.049Z,99.90
2019-06-26T06:21:06.775Z,99.90
2019-06-26T06:23:35.304Z,99.90
2019-06-26T06:26:04.567Z,99.90
2019-06-26T06:28:33.254Z,99.90
2019-06-26T06:31:01.802Z,99.90
2019-06-26T06:33:30.633Z,99.90
2019-06-26T06:35:59.231Z,99.90
2019-06-26T06:38:27.778Z,99.90
2019-06-26T06:40:56.535Z,99.90
2019-06-26T06:43:25.161Z,99.90
2019-06-26T06:45:53.804Z,99.90
2019-06-26T06:48:22.322Z,99.90
2019-06-26T06:50:51.316Z,99.90
2019-06-26T06:53:19.881Z,99.90
2019-06-26T06:55:48.479Z,99.90
2019-06-26T06:58:17.047Z,99.90
2019-06-26T07:00:45.763Z,99.90
2019-06-26T07:03:14.473Z,99.90
2019-06-26T07:05:43.022Z,99.90
2019-06-26T07:08:11.727Z,99.90
2019-06-26T07:10:40.276Z,99.90
2019-06-26T07:13:08.814Z,99.90
2019-06-26T07:15:37.425Z,99.90
2019-06-26T07:18:06.055Z,99.90
2019-06-26T07:20:34.586Z,99.90
2019-06-26T07:23:03.181Z,99.90
2019-06-26T07:25:31.760Z,99.90
2019-06-26T07:28:02.004Z,99.90
2019-06-26T07:30:30.525Z,99.90
2019-06-26T07:33:02.198Z,99.90
2019-06-26T07:35:30.765Z,99.30
2019-06-26T07:38:00.379Z,99.30
2019-06-26T07:40:29.190Z,99.90
2019-06-26T07:42:57.750Z,99.90
2019-06-26T07:45:26.276Z,99.90
2019-06-26T07:47:54.801Z,99.20
2019-06-26T07:50:23.600Z,99.20
2019-06-26T07:52:52.287Z,98.50
2019-06-26T07:55:21.838Z,99.10
2019-06-26T07:57:50.583Z,99.30
2019-06-26T08:00:19.807Z,98.50
2019-06-26T08:02:48.528Z,97.80
2019-06-26T08:05:17.959Z,97.50
2019-06-26T08:07:46.552Z,96.40
2019-06-26T08:10:15.304Z,97.50
2019-06-26T08:12:43.901Z,97.20
2019-06-26T08:15:12.888Z,97.00
2019-06-26T08:17:58.764Z,97.60
2019-06-26T08:20:13.504Z,96.80
2019-06-26T08:22:42.860Z,96.10
2019-06-26T08:25:11.632Z,96.10
2019-06-26T08:27:40.369Z,96.10
2019-06-26T08:30:10.325Z,95.30
2019-06-26T08:32:38.983Z,95.40
2019-06-26T08:35:07.913Z,95.40
2019-06-26T08:37:36.730Z,95.50
2019-06-26T08:40:07.103Z,95.40
2019-06-26T08:42:35.750Z,95.10
2019-06-26T08:45:06.841Z,95.10
2019-06-26T08:47:35.389Z,95.10
2019-06-26T08:50:06.516Z,94.70
2019-06-26T08:52:35.245Z,93.90
2019-06-26T08:55:07.393Z,94.10
2019-06-26T08:57:36.078Z,94.10
2019-06-26T09:00:07.400Z,94.00
2019-06-26T09:02:36.152Z,93.60
2019-06-26T09:05:06.157Z,94.10
2019-06-26T09:07:34.965Z,93.80
2019-06-26T09:10:11.962Z,93.40
2019-06-26T09:12:40.742Z,92.90
2019-06-26T09:15:10.564Z,93.20
2019-06-26T09:17:39.259Z,93.00
2019-06-26T09:20:08.258Z,93.00
2019-06-26T09:22:36.873Z,92.90
2019-06-26T09:25:20.739Z,92.60
2019-06-26T09:27:39.936Z,92.70
2019-06-26T09:30:10.134Z,92.70
2019-06-26T09:32:38.760Z,92.10
2019-06-26T09:35:07.570Z,92.40
2019-06-26T09:37:36.123Z,92.50
2019-06-26T09:40:06.245Z,92.30
2019-06-26T09:42:34.953Z,92.80
2019-06-26T09:45:04.781Z,92.10
2019-06-26T09:47:33.580Z,92.20
2019-06-26T09:50:04.925Z,92.50
2019-06-26T09:52:33.497Z,92.60
2019-06-26T09:55:02.582Z,92.20
2019-06-26T09:57:31.212Z,91.90
2019-06-26T09:59:59.798Z,91.40
2019-06-26T10:02:28.460Z,91.00
2019-06-26T10:04:57.016Z,91.20
2019-06-26T10:07:25.635Z,91.00
2019-06-26T10:09:54.115Z,90.90
2019-06-26T10:12:23.535Z,90.40
2019-06-26T10:14:52.336Z,90.50
2019-06-26T10:17:21.328Z,89.80
2019-06-26T10:19:56.864Z,89.20
2019-06-26T10:22:25.341Z,88.80
2019-06-26T10:24:53.934Z,89.90
2019-06-26T10:27:22.387Z,89.80
2019-06-26T10:29:50.886Z,88.40
2019-06-26T10:32:19.598Z,88.90
2019-06-26T10:34:48.301Z,87.70
2019-06-26T10:37:16.887Z,88.40
2019-06-26T10:39:45.537Z,89.70
2019-06-26T10:42:14.225Z,89.70
2019-06-26T10:44:44.005Z,89.60
2019-06-26T10:49:47.196Z,90.20
2019-06-26T10:52:15.795Z,89.70
2019-06-26T10:54:44.800Z,89.20
2019-06-26T10:57:13.538Z,88.20
2019-06-26T10:59:42.196Z,88.40
2019-06-26T11:02:10.894Z,90.00
2019-06-26T11:04:39.612Z,88.70
2019-06-26T11:07:08.328Z,88.40
2019-06-26T11:09:37.039Z,87.70
2019-06-26T11:12:05.922Z,87.20
2019-06-26T11:14:34.598Z,85.80
2019-06-26T11:17:03.096Z,86.80
2019-06-26T11:19:43.295Z,87.40
2019-06-26T11:22:01.878Z,86.70
2019-06-26T11:24:30.426Z,87.70
2019-06-26T11:26:59.143Z,85.80
2019-06-26T11:29:27.912Z,85.20
2019-06-26T11:31:56.494Z,85.80
2019-06-26T11:34:25.373Z,85.50
2019-06-26T11:37:03.898Z,83.90
2019-06-26T11:39:24.342Z,84.30
2019-06-26T11:41:53.257Z,83.80
2019-06-26T11:44:22.070Z,83.10
2019-06-26T11:46:50.808Z,84.60
2019-06-26T11:49:20.851Z,84.10
2019-06-26T11:51:50.493Z,82.20
2019-06-26T11:54:19.093Z,83.60
2019-06-26T11:56:47.823Z,83.60
2019-06-26T11:59:16.507Z,83.30
2019-06-26T12:01:45.036Z,84.10
2019-06-26T12:04:13.700Z,83.70
2019-06-26T12:06:45.633Z,83.60
2019-06-26T12:09:12.503Z,81.60
2019-06-26T12:11:41.150Z,83.00
2019-06-26T12:14:10.645Z,83.80
2019-06-26T12:16:58.739Z,81.70
2019-06-26T12:19:27.377Z,82.90
2019-06-26T12:21:56.194Z,80.10
2019-06-26T12:24:26.578Z,79.80
2019-06-26T12:26:54.907Z,81.30
2019-06-26T12:29:24.248Z,79.70
2019-06-26T12:31:53.332Z,79.20
2019-06-26T12:34:22.609Z,78.40
2019-06-26T12:36:51.519Z,78.30
2019-06-26T12:39:20.122Z,77.60
2019-06-26T12:41:48.804Z,77.90
2019-06-26T12:44:17.423Z,76.40
2019-06-26T12:46:46.035Z,76.70
2019-06-26T12:49:14.678Z,75.90
2019-06-26T12:51:43.285Z,76.00
2019-06-26T12:54:11.912Z,76.50
2019-06-26T12:56:40.647Z,75.80
2019-06-26T12:59:09.198Z,76.40
2019-06-26T13:01:37.867Z,76.60
2019-06-26T13:04:06.415Z,76.70
2019-06-26T13:06:35.092Z,75.30
2019-06-26T13:09:04.844Z,75.00
2019-06-26T13:11:33.386Z,74.20
2019-06-26T13:16:36.583Z,72.20
2019-06-26T13:19:06.074Z,72.40
2019-06-26T13:21:34.872Z,71.80
2019-06-26T13:24:03.663Z,70.10
2019-06-26T13:26:32.290Z,68.10
2019-06-26T13:29:00.970Z,69.30
2019-06-26T13:31:29.543Z,70.60
2019-06-26T13:33:58.163Z,70.20
2019-06-26T13:36:26.738Z,71.50
2019-06-26T13:38:55.411Z,70.70
2019-06-26T13:41:24.047Z,70.10
2019-06-26T13:43:52.639Z,70.10
2019-06-26T13:46:21.495Z,69.30
2019-06-26T13:48:50.193Z,69.10
2019-06-26T13:51:21.459Z,68.60
2019-06-26T13:53:49.563Z,67.70
2019-06-26T13:56:18.238Z,67.80
2019-06-26T13:58:46.826Z,69.00
2019-06-26T14:01:15.467Z,68.20
2019-06-26T14:03:44.180Z,67.60
2019-06-26T14:06:12.773Z,68.80
2019-06-26T14:08:41.891Z,69.10
2019-06-26T14:11:10.487Z,70.20
2019-06-26T14:13:41.823Z,69.90
2019-06-26T14:16:09.553Z,68.10
2019-06-26T14:18:38.242Z,69.50
2019-06-26T14:21:06.786Z,70.20
2019-06-26T14:23:37.863Z,70.20
2019-06-26T14:26:05.715Z,70.30
2019-06-26T14:28:34.365Z,71.30
2019-06-26T14:31:02.910Z,71.20
2019-06-26T14:33:31.487Z,70.80
2019-06-26T14:36:00.523Z,70.70
2019-06-26T14:38:29.011Z,69.90
2019-06-26T14:40:58.626Z,68.30
2019-06-26T14:43:27.254Z,70.00
2019-06-26T14:45:55.938Z,70.20
2019-06-26T14:48:24.855Z,69.00
2019-06-26T14:51:12.719Z,70.00
2019-06-26T14:53:42.586Z,68.60
2019-06-26T14:56:11.438Z,67.50
2019-06-26T14:58:39.987Z,67.60
2019-06-26T15:01:12.702Z,67.60
2019-06-26T15:03:41.336Z,68.00
2019-06-26T15:06:16.211Z,67.50
2019-06-26T15:08:40.367Z,66.90
2019-06-26T15:11:08.898Z,67.30
2019-06-26T15:13:38.408Z,67.00
2019-06-26T15:16:07.022Z,67.70
2019-06-26T15:18:35.861Z,66.30
2019-06-26T15:21:04.542Z,65.40
2019-06-26T15:23:33.336Z,64.60
2019-06-26T15:26:01.924Z,65.40
2019-06-26T15:28:30.490Z,64.90
2019-06-26T15:30:59.111Z,64.90
2019-06-26T15:33:27.756Z,64.80
2019-06-26T15:35:56.445Z,64.20
2019-06-26T15:38:25.178Z,63.40
2019-06-26T15:40:54.216Z,63.00
2019-06-26T15:43:22.717Z,64.50
2019-06-26T15:45:51.388Z,64.10
2019-06-26T15:48:20.024Z,63.90
2019-06-26T15:50:48.651Z,62.90
2019-06-26T15:55:51.644Z,63.80
2019-06-26T15:58:20.386Z,63.50
2019-06-26T16:00:49.015Z,62.20
2019-06-26T16:03:17.602Z,62.50
2019-06-26T16:05:46.208Z,60.90
2019-06-26T16:08:20.559Z,60.40
2019-06-26T16:10:49.258Z,59.90
2019-06-26T16:13:17.776Z,61.60
2019-06-26T16:15:46.733Z,61.10
2019-06-26T16:18:17.188Z,59.90
2019-06-26T16:20:45.814Z,59.70
2019-06-26T16:23:14.614Z,59.40
2019-06-26T16:25:44.165Z,58.40
2019-06-26T16:28:13.800Z,59.40
2019-06-26T16:30:42.423Z,58.50
2019-06-26T16:33:33.966Z,60.80
2019-06-26T16:36:06.757Z,59.80
2019-06-26T16:38:37.059Z,60.30
2019-06-26T16:41:05.630Z,58.70
2019-06-26T16:43:34.314Z,58.20
2019-06-26T16:46:03.054Z,58.80
2019-06-26T16:48:31.782Z,59.30
2019-06-26T16:51:00.493Z,58.80
2019-06-26T16:53:29.212Z,59.30
2019-06-26T16:55:57.828Z,59.20
2019-06-26T16:58:26.631Z,60.10
2019-06-26T17:00:55.268Z,60.00
2019-06-26T17:03:23.907Z,60.90
2019-06-26T17:05:52.558Z,60.40
2019-06-26T17:08:21.210Z,60.40
2019-06-26T17:10:49.986Z,60.00
2019-06-26T17:13:18.626Z,60.00
2019-06-26T17:15:47.217Z,58.80
2019-06-26T17:18:15.715Z,59.90
2019-06-26T17:20:44.334Z,59.30
2019-06-26T17:23:12.954Z,59.70
2019-06-26T17:25:41.664Z,60.30
2019-06-26T17:28:10.191Z,61.00
2019-06-26T17:30:38.920Z,62.90
2019-06-26T17:33:07.450Z,62.70
2019-06-26T17:35:36.057Z,61.70
2019-06-26T17:38:04.792Z,62.00
2019-06-26T17:40:34.328Z,61.60
2019-06-26T17:43:12.311Z,62.80
2019-06-26T17:45:33.289Z,62.50
2019-06-26T17:48:02.048Z,64.00
2019-06-26T17:50:30.919Z,63.30
2019-06-26T17:52:59.607Z,64.80
2019-06-26T17:55:28.192Z,65.70
2019-06-26T17:57:56.859Z,66.40
2019-06-26T18:00:36.162Z,66.90
2019-06-26T18:03:05.219Z,66.60
2019-06-26T18:05:33.870Z,66.80
2019-06-26T18:08:02.541Z,66.30
2019-06-26T18:10:31.414Z,67.40
2019-06-26T18:13:00.048Z,68.00
2019-06-26T18:15:28.760Z,68.10
2019-06-26T18:17:57.455Z,68.70
2019-06-26T18:20:26.234Z,69.20
2019-06-26T18:23:06.408Z,69.20
2019-06-26T18:25:25.778Z,68.40
2019-06-26T18:27:54.470Z,67.70
2019-06-26T18:30:23.605Z,67.60
2019-06-26T18:32:52.198Z,68.00
2019-06-26T18:35:20.880Z,67.90
2019-06-26T18:37:49.343Z,70.00
2019-06-26T18:40:19.058Z,70.30
2019-06-26T18:42:47.695Z,71.40
2019-06-26T18:45:16.678Z,72.10
2019-06-26T18:47:45.242Z,72.60
2019-06-26T18:50:15.130Z,72.50
2019-06-26T18:52:43.845Z,72.10
2019-06-26T18:55:12.963Z,72.20
2019-06-26T18:57:41.599Z,72.60
2019-06-26T19:00:10.831Z,72.60
2019-06-26T19:02:40.705Z,72.30
2019-06-26T19:05:09.575Z,73.10
2019-06-26T19:07:38.255Z,72.80
2019-06-26T19:10:09.189Z,73.50
2019-06-26T19:12:37.894Z,74.60
2019-06-26T19:15:07.128Z,75.90
2019-06-26T19:17:35.729Z,74.60
2019-06-26T19:20:06.966Z,76.40
2019-06-26T19:22:54.975Z,76.10
2019-06-26T19:25:23.666Z,75.40
2019-06-26T19:27:52.214Z,75.90
2019-06-26T19:30:21.174Z,75.80
2019-06-26T19:32:49.835Z,74.70
2019-06-26T19:35:19.631Z,75.40
2019-06-26T19:37:48.684Z,74.30
2019-06-26T19:40:17.582Z,75.00
2019-06-26T19:42:46.157Z,75.60
2019-06-26T19:45:15.419Z,75.80
2019-06-26T19:47:44.133Z,75.70
2019-06-26T19:50:14.248Z,75.40
2019-06-26T19:52:42.916Z,77.00
2019-06-26T19:57:46.690Z,76.80
2019-06-26T20:00:15.680Z,76.90
2019-06-26T20:02:44.324Z,77.90
2019-06-26T20:05:13.252Z,77.60
2019-06-26T20:07:41.712Z,79.40
2019-06-26T20:10:11.696Z,78.50
2019-06-26T20:12:40.324Z,77.80
2019-06-26T20:15:09.658Z,78.40
2019-06-26T20:17:38.342Z,78.40
2019-06-26T20:20:07.555Z,77.90
2019-06-26T20:22:36.248Z,78.20
2019-06-26T20:25:09.223Z,78.40
2019-06-26T20:27:37.878Z,77.10
2019-06-26T20:30:09.711Z,78.30
2019-06-26T20:32:38.067Z,77.50
2019-06-26T20:35:07.470Z,78.80
2019-06-26T20:37:36.180Z,80.50
2019-06-26T20:40:08.533Z,78.30
2019-06-26T20:42:37.225Z,78.90
2019-06-26T20:45:06.641Z,78.70
2019-06-26T20:47:35.244Z,79.10
2019-06-26T20:50:06.443Z,79.70
2019-06-26T20:52:35.142Z,80.30
2019-06-26T20:55:05.021Z,81.30
2019-06-26T20:57:33.538Z,81.30
2019-06-26T21:00:02.274Z,81.40
2019-06-26T21:02:30.889Z,81.70
2019-06-26T21:04:59.461Z,83.30
2019-06-26T21:07:28.036Z,83.80
2019-06-26T21:09:56.639Z,84.10
2019-06-26T21:12:25.242Z,85.60
2019-06-26T21:14:54.040Z,85.50
2019-06-26T21:19:56.307Z,86.90
2019-06-26T21:22:24.986Z,86.30
2019-06-26T21:24:53.792Z,87.40
2019-06-26T21:27:22.511Z,87.60
2019-06-26T21:29:51.241Z,88.40
2019-06-26T21:32:20.264Z,89.20
2019-06-26T21:34:49.846Z,89.70
2019-06-26T21:37:29.234Z,89.40
2019-06-26T21:40:00.535Z,90.10
2019-06-26T21:42:30.571Z,90.00
2019-06-26T21:44:59.135Z,90.50
2019-06-26T21:47:27.666Z,90.50
2019-06-26T21:49:56.907Z,90.50
2019-06-26T21:52:25.454Z,90.90
2019-06-26T21:54:53.959Z,91.10
2019-06-26T21:57:22.567Z,91.30
2019-06-26T21:59:51.194Z,91.00
2019-06-26T22:02:21.700Z,91.20
2019-06-26T22:04:50.344Z,90.90
2019-06-26T22:07:18.935Z,91.10
2019-06-26T22:09:47.601Z,91.30
2019-06-26T22:12:16.552Z,91.10
2019-06-26T22:15:05.804Z,91.40
2019-06-26T22:17:34.437Z,91.50
2019-06-26T22:20:05.550Z,91.60
2019-06-26T22:22:33.887Z,92.30
2019-06-26T22:25:02.417Z,92.10
2019-06-26T22:27:31.462Z,92.10
2019-06-26T22:29:59.989Z,92.00
2019-06-26T22:32:31.680Z,92.00
2019-06-26T22:35:00.309Z,91.70
2019-06-26T22:37:28.828Z,91.50
2019-06-26T22:39:57.273Z,91.50
2019-06-26T22:42:25.888Z,91.20
2019-06-26T22:44:54.454Z,91.00
2019-06-26T22:47:22.985Z,91.80
2019-06-26T22:49:51.724Z,92.00
2019-06-26T22:52:20.296Z,92.60
2019-06-26T22:54:48.830Z,92.50
2019-06-26T22:57:17.294Z,92.40
2019-06-26T22:59:45.779Z,93.30
2019-06-26T23:02:14.230Z,92.70
2019-06-26T23:04:42.686Z,92.80
2019-06-26T23:07:11.133Z,92.50
2019-06-26T23:09:39.782Z,93.10
2019-06-26T23:12:08.312Z,92.80
2019-06-26T23:14:36.787Z,93.70
2019-06-26T23:17:05.483Z,93.80
2019-06-26T23:22:53.834Z,93.30
2019-06-26T23:25:28.624Z,93.50
2019-06-26T23:27:57.179Z,93.60
2019-06-26T23:30:25.938Z,93.60
2019-06-26T23:33:22.240Z,94.40
2019-06-26T23:35:42.453Z,94.00
2019-06-26T23:38:13.959Z,94.70
2019-06-26T23:40:42.589Z,94.70
2019-06-26T23:43:11.061Z,95.90
2019-06-26T23:45:39.509Z,95.40
2019-06-26T23:48:08.082Z,95.30
2019-06-26T23:50:36.674Z,95.90
2019-06-26T23:53:05.255Z,96.10
2019-06-26T23:55:33.706Z,96.20
2019-06-26T23:58:02.204Z,96.20
